Latest Coastal Weather Observations for Walpole North

IDW60701

Issued at 4:32 pm WST Sunday 2 August 2015 (issued every 10 minutes, with the page automatically refreshed every 10 minutes)

About coastal observations | Map of coastal stations | Coastal observations for WA | Marine services | Other Formats
Station Details ID: 009998 Name: NORTH WALPOLE Lat: -34.95 Lon: 116.72 Height: 73.0 m
Data from the previous 72 hours. | See also: Recent months at Walpole North
Date/Time
WST
Temp

°C
Wind Pressure Rain
since 9am
mm
Weather Cloud Vis
km
Sea
Height
m
Swell
Dir
 
Speed
knots
Gust
knots
hPa Trend Height
m
Period
s
Dir
02/04:30pm 12.8 CALM 0 0 1033.1 - 1.2 - - - - - - -
02/04:00pm 12.8 CALM 0 0 1033.1 - 1.2 - - - - - - -
02/03:30pm 13.1 W 4 7 1033.0 - 0.8 - - - - - - -
02/03:00pm 12.9 CALM 0 0 1032.9 - 0.8 Recent precip. - - - - - -
02/02:30pm 14.4 SSW 4 6 1032.7 - 0.6 - - - - - - -
02/02:00pm 13.0 SW 6 8 1032.6 - 0.6 - - - - - - -
02/01:30pm 13.9 SW 1 5 1032.7 - 0.6 - - - - - - -
02/01:00pm 12.8 SSW 3 5 1033.0 - 0.6 - - - - - - -
02/12:30pm 14.1 S 1 6 1033.3 - 0.6 - - - - - - -
02/12:00pm 13.6 NW 4 6 1033.7 - 0.6 - - - - - - -
02/11:30am 12.1 CALM 0 0 1034.1 - 0.6 - - - - - - -
02/11:00am 12.0 W 4 8 1034.1 - 0.6 - - - - - - -
02/10:30am 12.9 NW 4 7 1033.9 - 0.0 - - - - - - -
02/10:00am 10.7 NW 5 8 1033.8 - 0.0 - - - - - - -
02/09:30am 10.2 WNW 5 7 1033.7 - 0.0 - - - - - - -
02/09:00am 9.9 WNW 4 6 1033.5 - 4.4 - - - - - - -
02/08:30am 9.0 WSW 1 4 1033.2 - 4.4 - - - - - - -
02/08:00am 8.2 WSW 1 3 1032.9 - 4.4 - - - - - - -
02/07:30am 8.0 NE 4 8 1032.5 - 4.4 - - - - - - -
02/07:00am 8.5 NNW 6 7 1032.0 - 4.4 - - - - - - -
02/06:30am 8.4 CALM 0 0 1032.1 - 4.4 - - - - - - -
02/06:00am 8.6 CALM 0 0 1031.7 - 4.4 Rain - - - - - -
02/05:30am 8.3 CALM 0 0 1031.6 - 3.0 - - - - - - -
02/05:00am 8.5 CALM 0 0 1031.5 - 0.8 - - - - - - -
02/04:30am 7.7 CALM 0 0 1031.5 - 0.6 - - - - - - -
02/04:00am 8.5 CALM 0 0 1031.3 - 0.6 - - - - - - -
02/03:30am 8.3 NW 5 7 1031.1 - 0.6 - - - - - - -
02/03:00am 8.2 NW 5 7 1031.3 - 0.6 Recent precip. - - - - - -
02/02:30am 8.3 CALM 0 0 1031.3 - 0.6 - - - - - - -
02/02:00am 8.5 NNW 3 6 1031.4 - 0.4 - - - - - - -
02/01:30am 8.7 CALM 0 0 1031.3 - 0.4 - - - - - - -
02/01:00am 8.7 CALM 0 0 1031.3 - 0.2 - - - - - - -
02/12:30am 8.7 CALM 0 0 1031.1 - 0.2 - - - - - - -
02/12:00am 8.2 CALM 0 0 1031.3 - 0.0 - - - - - - -
 
Date/Time
WST
Temp

°C
Wind Pressure Rain
since 9am
mm
Weather Cloud Vis
km
Sea
Height
m
Swell
Dir
 
Speed
knots
Gust
knots
hPa Trend Height
m
Period
s
Dir
01/11:30pm 8.2 CALM 0 0 1031.1 - 0.0 - - - - - - -
01/11:00pm 8.3 CALM 0 4 1031.1 - 0.0 - - - - - - -
01/10:30pm 8.9 N 1 5 1031.1 - 0.0 - - - - - - -
01/10:00pm 9.2 NE 5 7 1030.9 - 0.0 - - - - - - -
01/09:30pm 9.6 E 1 7 1031.0 - 0.0 - - - - - - -
01/09:00pm 9.6 E 6 8 1030.9 - 0.0 - - - - - - -
01/08:30pm 10.2 CALM 0 0 1030.6 - 0.0 - - - - - - -
01/08:00pm 10.2 CALM 0 0 1030.1 - 0.0 - - - - - - -
01/07:30pm 10.3 CALM 0 0 1029.9 - 0.0 - - - - - - -
01/07:00pm 10.5 CALM 0 0 1029.5 - 0.0 - - - - - - -
01/06:30pm 10.4 CALM 0 0 1029.1 - 0.0 - - - - - - -
01/06:00pm 10.7 CALM 0 0 1028.8 - 0.0 - - - - - - -
01/05:30pm 10.9 S 1 5 1028.6 - 0.0 - - - - - - -
01/05:00pm 11.1 SE 8 11 1028.6 - 0.0 - - - - - - -
01/04:30pm 11.4 ESE 10 15 1028.3 - 0.0 - - - - - - -
01/04:00pm 12.4 SSE 3 11 1028.0 - 0.0 - - - - - - -
01/03:30pm 12.4 SE 4 8 1027.6 - 0.0 - - - - - - -
01/03:00pm 12.4 SSE 4 8 1027.5 - 0.0 - - - - - - -
01/02:30pm 12.2 S 5 8 1027.3 - 0.0 - - - - - - -
01/02:00pm 12.4 SE 8 11 1027.0 - 0.0 - - - - - - -
01/01:30pm 12.5 SE 6 9 1027.0 - 0.0 - - - - - - -
01/01:00pm 12.5 SE 8 12 1027.1 - 0.0 - - - - - - -
01/12:30pm 12.5 SSE 7 11 1027.2 - 0.0 - - - - - - -
01/12:00pm 12.8 SSE 7 12 1027.6 - 0.0 - - - - - - -
01/11:30am 13.0 SSE 4 8 1027.7 - 0.0 - - - - - - -
01/11:00am 12.2 SSE 8 13 1027.7 - 0.0 - - - - - - -
01/10:30am 12.3 SSE 7 12 1027.7 - 0.0 - - - - - - -
01/10:00am 12.4 SE 7 8 1027.1 - 0.0 - - - - - - -
01/09:30am 11.8 SE 4 6 1026.9 - 0.0 - - - - - - -
01/09:00am 11.4 SE 8 11 1026.6 - 1.4 - - - - - - -
01/08:30am 11.2 SE 9 13 1026.0 - 1.4 - - - - - - -
01/08:00am 11.0 SE 8 11 1025.6 - 1.4 - - - - - - -
01/07:30am 10.9 SE 8 11 1025.0 - 1.4 - - - - - - -
01/07:00am 11.1 SE 10 13 1024.7 - 1.4 - - - - - - -
01/06:30am 11.0 SE 8 11 1024.0 - 1.4 - - - - - - -
01/06:00am 11.1 SE 11 16 1023.6 - 1.4 - - - - - - -
01/05:30am 11.3 SE 10 14 1023.3 - 1.4 - - - - - - -
01/05:00am 11.0 SE 10 15 1023.0 - 1.4 - - - - - - -
01/04:30am 11.3 ESE 11 15 1022.9 - 1.4 - - - - - - -
01/04:00am 11.2 SE 10 15 1022.8 - 1.4 - - - - - - -
01/03:30am 11.5 SE 12 17 1022.7 - 1.4 - - - - - - -
01/03:00am 11.5 ESE 11 15 1022.6 - 1.4 - - - - - - -
01/02:30am 11.2 SE 13 19 1022.4 - 1.4 - - - - - - -
01/02:00am 11.1 ESE 10 16 1022.2 - 1.4 - - - - - - -
01/01:30am 11.5 SE 15 22 1022.1 - 1.2 - - - - - - -
01/01:00am 11.6 SE 12 19 1021.7 - 1.2 - - - - - - -
01/12:30am 11.9 SE 13 18 1021.6 - 1.2 - - - - - - -
01/12:00am 11.9 SE 12 19 1021.5 - 1.2 - - - - - - -
 
Date/Time
WST
Temp

°C
Wind Pressure Rain
since 9am
mm
Weather Cloud Vis
km
Sea
Height
m
Swell
Dir
 
Speed
knots
Gust
knots
hPa Trend Height
m
Period
s
Dir
31/11:30pm 12.0 ESE 13 18 1021.4 - 1.2 - - - - - - -
31/11:00pm 12.0 ESE 13 17 1021.4 - 1.2 - - - - - - -
31/10:30pm 12.0 ESE 12 18 1021.2 - 1.2 - - - - - - -
31/10:00pm 12.2 ESE 13 21 1021.0 - 1.2 - - - - - - -
31/09:30pm 12.3 SE 12 17 1021.0 - 1.2 - - - - - - -
31/09:00pm 12.4 ESE 13 18 1020.7 - 1.2 - - - - - - -
31/08:30pm 12.2 SE 11 16 1020.4 - 1.2 - - - - - - -
31/08:00pm 12.5 SE 12 17 1019.9 - 1.2 - - - - - - -
31/07:30pm 12.1 SE 10 16 1019.4 - 1.2 - - - - - - -
31/07:00pm 12.2 ESE 15 23 1019.0 - 1.2 - - - - - - -
31/06:30pm 12.1 ESE 15 22 1018.8 - 1.2 - - - - - - -
31/06:00pm 12.3 SE 13 22 1018.4 - 1.2 - - - - - - -
31/05:30pm 12.3 ESE 14 23 1018.1 - 1.2 - - - - - - -
31/05:20pm 12.4 SE 15 26 1017.9 - 1.2 - - - - - - -
31/05:00pm 12.4 ESE 13 19 1017.7 - 1.2 - - - - - - -
31/04:30pm 12.2 SE 13 19 1017.1 - 1.2 - - - - - - -
31/04:00pm 12.3 ESE 15 22 1016.9 - 1.2 - - - - - - -
31/03:30pm 12.3 SE 12 17 1017.0 - 1.2 - - - - - - -
31/03:00pm 12.3 SE 13 21 1016.7 - 1.2 - - - - - - -
31/02:30pm 12.1 SE 12 18 1016.1 - 1.2 - - - - - - -
31/02:00pm 11.9 ESE 10 15 1015.7 - 1.2 - - - - - - -
31/01:30pm 11.5 ESE 12 18 1015.4 - 1.2 - - - - - - -
31/01:00pm 11.3 SE 14 22 1015.8 - 1.2 - - - - - - -
31/12:30pm 11.6 ESE 14 19 1015.6 - 1.2 - - - - - - -
31/12:00pm 11.6 SE 14 21 1015.4 - 1.2 Recent precip. - - - - - -
31/11:30am 11.7 SE 15 21 1015.7 - 1.2 - - - - - - -
31/11:00am 11.9 ESE 9 16 1016.2 - 1.0 - - - - - - -
31/10:30am 11.8 ESE 10 15 1016.1 - 0.8 - - - - - - -
31/10:00am 11.8 ESE 14 21 1015.5 - 0.8 - - - - - - -
31/09:30am 11.9 ESE 16 23 1015.2 - 0.4 - - - - - - -
31/09:00am 11.9 SE 14 23 1015.5 - 14.2 Recent precip. - - - - - -
31/08:30am 12.1 SE 15 22 1015.2 - 14.0 - - - - - - -
31/08:06am 11.9 SE 15 25 1014.9 - 13.6 - - - - - - -
31/08:00am 12.0 SE 14 25 1014.8 - 13.6 - - - - - - -
31/07:30am 12.2 SE 14 21 1014.4 - 13.2 - - - - - - -
31/07:16am 12.3 SE 16 26 1014.0 - 13.0 - - - - - - -
31/07:00am 12.5 SE 17 26 1013.5 - 12.8 - - - - - - -
31/06:30am 13.0 SE 15 25 1013.3 - 12.4 - - - - - - -
31/06:00am 13.4 SE 14 22 1013.4 - 10.4 Recent precip. - - - - - -
31/05:30am 13.6 SE 16 23 1012.5 - 10.2 - - - - - - -
31/05:00am 14.2 SE 9 21 1012.4 - 9.6 - - - - - - -
31/04:30am 13.4 CALM 0 0 1011.9 - 9.0 - - - - - - -
31/04:00am 13.3 CALM 0 0 1012.0 - 8.6 - - - - - - -
31/03:30am 13.4 CALM 0 0 1012.2 - 8.0 - - - - - - -
31/03:00am 13.4 CALM 0 0 1012.1 - 7.8 Rain - - - - - -
31/02:30am 13.2 CALM 0 0 1012.2 - 7.6 - - - - - - -
31/02:00am 13.3 CALM 0 0 1012.9 - 7.6 - - - - - - -
31/01:30am 13.2 CALM 0 0 1012.9 - 7.4 - - - - - - -
31/01:00am 13.2 CALM 0 0 1013.2 - 7.4 - - - - - - -
31/12:30am 13.3 CALM 0 0 1013.5 - 6.2 - - - - - - -
31/12:00am 13.4 E 2 4 1013.6 - 5.0 Recent precip. - - - - - -
 
Date/Time
WST
Temp

°C
Wind Pressure Rain
since 9am
mm
Weather Cloud Vis
km
Sea
Height
m
Swell
Dir
 
Speed
knots
Gust
knots
hPa Trend Height
m
Period
s
Dir
30/11:30pm 13.3 SE 4 6 1014.1 - 5.0 - - - - - - -
30/11:00pm 13.3 SE 4 6 1014.6 - 4.8 - - - - - - -
30/10:30pm 13.4 E 4 6 1014.9 - 4.8 - - - - - - -
30/10:00pm 13.3 SE 3 5 1014.9 - 4.8 - - - - - - -
30/09:30pm 13.6 SE 4 6 1015.9 - 4.4 - - - - - - -
30/09:00pm 13.7 SSE 1 4 1016.3 - 3.4 Rain - - - - - -
30/08:30pm 13.7 E 5 7 1016.1 - 2.4 - - - - - - -
30/08:00pm 13.7 ENE 5 8 1015.9 - 1.2 - - - - - - -
30/07:30pm 13.8 ENE 6 9 1016.2 - 1.0 - - - - - - -
30/07:00pm 14.0 E 6 10 1016.5 - 0.8 - - - - - - -
30/06:30pm 14.2 E 6 8 1017.0 - 0.4 - - - - - - -
30/06:00pm 14.4 ESE 4 6 1017.1 - 0.0 - - - - - - -
30/05:30pm 14.5 SE 4 6 1017.1 - 0.0 - - - - - - -
30/05:00pm 14.6 ESE 5 7 1017.0 - 0.0 - - - - - - -

Other Formats:

Comma delimited format used in spreadsheet applications
http://www.bom.gov.au/fwo/IDW60701/IDW60701.95647.axf

JavaScript Object Notation format (JSON) in row-major order
http://www.bom.gov.au/fwo/IDW60701/IDW60701.95647.json